Airfield :
LOGIN :

Register | Disclaimer

   EN    FR    IT 

 










Legend :    VFR   Marginal VFR   IFR   Intensive IFR   Very Intensive IFR
Visi :
Ceiling :
>= 8 km
>= 3000ft
5 to 8 km
1000 to 3000 ft
1500m to 5 km
500 to 1000 ft
800 to 1500m
200 to 500 ft
< 800m
< 200 ft
Symbols :   Thunderstorms  Fog  Heavy snow  Heavy precipitations  Wind > 20 kt
SIGMETs :     Misc.  Thunderstorms  Icing  Turbulence  Mountain Waves  Volcanic Ashes







- Airport Elevation : 233 ft
- IATA code : REU


LERS - Reus Tarragona

CURRENT METAR :
  • 152130Z 02006KT CAVOK 23/14 Q1021

EXPIRED METARs :
  • 152100Z 02005KT 360V070 CAVOK 23/15 Q1021
  • 152030Z 03005KT 360V060 CAVOK 24/16 Q1021
  • 152000Z 05004KT CAVOK 22/17 Q1021
  • 151930Z 06003KT CAVOK 23/18 Q1020
  • 151900Z 08003KT 050V110 9999 FEW030 23/18 Q1020

TAF TAF LERS
Valid from the 15 at 21:00 until the 16 at 21:00 UTC


152000Z 1521/1621 02005KT 9999 FEW030 TX29/1613Z TN19/1606Z
BECMG 1609/1611 10010KT
No reported NOTAMs for that airfield.



MET'MAP, your aeronautical weather chart ! - Copyright ORBIFLY December 2007 - Disclaimer

ORBIFLY MET'MAP TEAM :

Programming & Development : Alexandra Zaïnal
Concept & Development : Baudouin d'Aumeries
Co-Development & Prog : Marc-Olivier Méhu
Technical & hardware support : Manuel Goepfert

Contact : metmap@orbifly.com




SOURCES & CREDITS :

   NOAA